Time;durP1;ratioP1;P1;durP2;ratioP2;P2;SDS_P1;SDS_P2;PMS_P1;PMS_P2;Temp;Humidity;BMP_temperature;BMP_pressure;BME280_temperature;BME280_humidity;BME280_pressure;Samples;Min_cycle;Max_cycle;Signal;HPM_P1;HPM_P2
2022/02/16 00:00:14;;;;;;;7.20;1.40;;;28.00;94.40;;;;;;4980478;28;20386;-81
2022/02/16 00:02:41;;;;;;;8.85;0.90;;;27.80;94.60;;;;;;4984263;28;20375;-84
2022/02/16 00:05:13;;;;;;;3.88;1.05;;;27.40;95.00;;;;;;4981846;28;20019;-77
2022/02/16 00:07:41;;;;;;;6.78;1.52;;;27.70;95.40;;;;;;4983241;28;20069;-76
2022/02/16 00:10:11;;;;;;;13.68;2.58;;;28.60;94.90;;;;;;4978882;28;20022;-81
2022/02/16 00:12:39;;;;;;;6.43;1.00;;;28.70;93.60;;;;;;4984913;28;20026;-78
2022/02/16 00:15:08;;;;;;;4.93;1.25;;;28.40;93.90;;;;;;4991455;28;20190;-79
2022/02/16 00:17:36;;;;;;;7.40;1.75;;;27.90;93.90;;;;;;4983022;28;20049;-78
2022/02/16 00:20:09;;;;;;;6.28;1.33;;;27.70;94.30;;;;;;4973366;28;20105;-79
2022/02/16 00:22:36;;;;;;;7.10;1.27;;;28.40;94.60;;;;;;4982413;28;20034;-78
2022/02/16 00:25:04;;;;;;;10.40;0.88;;;29.20;92.80;;;;;;4987507;28;20597;-76
2022/02/16 00:27:31;;;;;;;3.42;0.93;;;29.10;91.60;;;;;;4982659;28;20045;-77
2022/02/16 00:29:59;;;;;;;5.80;1.02;;;29.30;92.20;;;;;;4986238;28;20022;-75
2022/02/16 00:32:26;;;;;;;4.00;0.73;;;29.70;91.50;;;;;;4981429;28;20073;-77
2022/02/16 00:34:54;;;;;;;5.47;1.00;;;30.30;90.80;;;;;;4987789;28;20034;-77
2022/02/16 00:37:21;;;;;;;12.77;1.17;;;31.00;90.40;;;;;;4982629;28;20022;-78
2022/02/16 00:39:48;;;;;;;6.32;2.15;;;31.50;88.90;;;;;;4984021;28;20371;-77
2022/02/16 00:42:16;;;;;;;3.85;0.80;;;31.10;88.60;;;;;;4976200;28;20559;-78
2022/02/16 00:44:43;;;;;;;3.85;0.77;;;30.20;89.70;;;;;;4989811;28;20033;-80
2022/02/16 00:47:12;;;;;;;4.63;0.93;;;30.20;90.90;;;;;;4986995;28;20042;-80
2022/02/16 00:49:39;;;;;;;7.63;1.13;;;30.20;90.20;;;;;;4982909;28;20031;-78
2022/02/16 00:52:07;;;;;;;4.75;0.77;;;30.10;90.80;;;;;;4983766;28;20033;-80
2022/02/16 00:54:37;;;;;;;6.22;0.95;;;30.00;90.20;;;;;;4979886;28;20047;-80
2022/02/16 00:57:06;;;;;;;10.32;1.10;;;30.10;90.80;;;;;;4985118;28;20026;-81
2022/02/16 00:59:33;;;;;;;7.68;1.00;;;30.70;90.10;;;;;;4982914;28;20035;-81
2022/02/16 01:02:01;;;;;;;4.97;0.80;;;30.70;90.40;;;;;;4982759;28;20177;-79
2022/02/16 01:04:28;;;;;;;6.03;1.35;;;30.90;90.10;;;;;;4977731;28;20120;-77
2022/02/16 01:06:55;;;;;;;6.40;2.00;;;31.00;88.10;;;;;;4982243;28;20437;-79
2022/02/16 01:09:23;;;;;;;5.88;1.13;;;30.50;90.00;;;;;;4986896;28;20022;-76
2022/02/16 01:11:50;;;;;;;3.92;1.23;;;29.90;90.20;;;;;;4980213;28;20138;-80
2022/02/16 01:14:17;;;;;;;8.82;1.30;;;29.20;90.40;;;;;;4982269;28;20066;-76
2022/02/16 01:16:45;;;;;;;3.10;0.98;;;29.00;91.30;;;;;;4981071;28;20038;-81
2022/02/16 01:19:12;;;;;;;7.50;1.27;;;29.30;91.10;;;;;;4980660;28;20315;-81
2022/02/16 01:21:40;;;;;;;6.13;1.02;;;29.70;91.10;;;;;;4981622;28;20030;-77
2022/02/16 01:24:07;;;;;;;6.25;1.15;;;30.40;90.60;;;;;;4977776;28;20056;-75
2022/02/16 01:26:35;;;;;;;5.82;1.15;;;31.00;88.50;;;;;;4981400;28;20034;-77
2022/02/16 01:29:02;;;;;;;4.22;0.55;;;31.50;90.00;;;;;;4978483;28;20430;-76
2022/02/16 01:31:29;;;;;;;4.35;1.05;;;31.90;88.50;;;;;;4978039;28;20100;-75
2022/02/16 01:33:57;;;;;;;7.78;1.13;;;32.00;87.90;;;;;;4982607;28;20355;-78
2022/02/16 01:36:24;;;;;;;5.40;1.02;;;32.30;88.70;;;;;;4982293;28;20058;-76
2022/02/16 01:38:51;;;;;;;6.10;1.02;;;32.40;86.40;;;;;;4984395;28;20393;-76
2022/02/16 01:41:19;;;;;;;6.65;1.30;;;31.80;86.40;;;;;;4988219;28;20014;-78
2022/02/16 01:43:48;;;;;;;8.88;1.70;;;30.90;88.00;;;;;;4988812;28;20065;-75
2022/02/16 01:46:16;;;;;;;3.45;1.08;;;31.20;88.40;;;;;;4976981;28;20179;-76
2022/02/16 01:48:44;;;;;;;2.47;0.68;;;31.70;87.50;;;;;;4979770;28;20034;-79
2022/02/16 01:51:13;;;;;;;4.35;0.80;;;32.00;87.30;;;;;;4980674;28;20126;-77
2022/02/16 01:53:40;;;;;;;6.32;1.20;;;31.60;87.10;;;;;;4978146;28;20261;-78
2022/02/16 01:56:08;;;;;;;6.53;1.50;;;31.20;88.80;;;;;;4981064;28;20023;-77
2022/02/16 01:58:36;;;;;;;6.57;0.80;;;31.50;87.90;;;;;;4981085;28;23173;-77
2022/02/16 02:01:08;;;;;;;2.85;0.55;;;31.70;85.20;;;;;;4983931;28;20034;-77
2022/02/16 02:03:36;;;;;;;6.15;0.90;;;32.00;86.30;;;;;;4984009;28;20114;-77
2022/02/16 02:06:03;;;;;;;6.00;1.17;;;31.60;85.90;;;;;;4982281;28;20117;-77
2022/02/16 02:08:31;;;;;;;6.65;1.00;;;31.60;86.90;;;;;;4979831;28;20050;-77
2022/02/16 02:10:58;;;;;;;6.07;0.70;;;32.30;86.20;;;;;;4987105;28;20535;-78
2022/02/16 02:13:26;;;;;;;5.75;0.63;;;32.70;84.30;;;;;;4985502;28;20135;-78
2022/02/16 02:15:54;;;;;;;5.05;0.88;;;33.30;83.60;;;;;;4980895;28;20027;-77
2022/02/16 02:18:21;;;;;;;4.78;0.80;;;32.70;82.50;;;;;;4981606;28;20065;-78
2022/02/16 02:20:49;;;;;;;7.47;2.30;;;31.90;83.20;;;;;;4989085;28;20058;-77
2022/02/16 02:23:16;;;;;;;4.70;0.80;;;31.30;85.50;;;;;;4983713;28;20038;-77
2022/02/16 02:25:54;;;;;;;5.13;1.40;;;31.70;86.10;;;;;;4984922;28;20019;-78
2022/02/16 02:28:24;;;;;;;4.65;0.95;;;32.30;84.40;;;;;;4981643;28;20555;-75
2022/02/16 02:30:52;;;;;;;8.48;1.13;;;32.60;81.50;;;;;;4982219;28;20038;-77
2022/02/16 02:33:19;;;;;;;3.17;0.70;;;32.90;80.30;;;;;;4981301;28;20118;-75
2022/02/16 02:35:47;;;;;;;2.22;0.60;;;33.10;79.80;;;;;;4981642;28;20095;-84
2022/02/16 02:38:14;;;;;;;4.35;1.10;;;33.40;79.40;;;;;;4982783;28;20042;-76
2022/02/16 02:40:41;;;;;;;1.10;0.43;;;33.10;79.90;;;;;;4977715;28;20034;-79
2022/02/16 02:43:09;;;;;;;4.30;1.05;;;32.00;81.80;;;;;;4986219;28;20082;-77
2022/02/16 02:45:37;;;;;;;2.90;0.75;;;31.60;82.80;;;;;;4983699;28;20038;-80
2022/02/16 02:48:05;;;;;;;3.67;1.27;;;31.20;83.90;;;;;;4986772;28;20094;-77
2022/02/16 02:50:32;;;;;;;6.50;1.25;;;30.80;84.90;;;;;;4985172;28;20470;-76
2022/02/16 02:53:00;;;;;;;5.93;1.08;;;30.80;85.30;;;;;;4990222;28;20481;-78
2022/02/16 02:55:27;;;;;;;3.70;0.90;;;31.30;85.90;;;;;;4980322;28;20046;-78
2022/02/16 02:57:54;;;;;;;5.15;1.15;;;32.10;85.10;;;;;;4987233;28;20052;-82
2022/02/16 03:00:22;;;;;;;4.63;1.08;;;32.70;84.70;;;;;;4991928;28;20803;-77
2022/02/16 03:02:49;;;;;;;5.05;0.88;;;33.00;83.30;;;;;;4987982;28;20106;-80
2022/02/16 03:05:16;;;;;;;9.98;1.48;;;33.20;80.50;;;;;;4988420;28;20066;-78
2022/02/16 03:07:44;;;;;;;4.28;0.90;;;33.30;81.50;;;;;;4985403;28;20042;-81
2022/02/16 03:10:11;;;;;;;5.13;1.30;;;33.70;79.90;;;;;;4991591;28;20504;-77
2022/02/16 03:12:38;;;;;;;5.40;0.80;;;33.20;78.60;;;;;;4984240;28;20037;-79
2022/02/16 03:15:06;;;;;;;3.40;0.93;;;32.60;80.50;;;;;;4992129;28;20019;-76
2022/02/16 03:17:34;;;;;;;6.55;1.02;;;31.80;82.10;;;;;;4976775;28;20110;-76
2022/02/16 03:20:01;;;;;;;4.32;1.30;;;31.10;83.70;;;;;;4979128;28;20030;-77
2022/02/16 03:22:29;;;;;;;4.47;1.27;;;30.70;85.10;;;;;;4993035;28;20053;-80
2022/02/16 03:24:56;;;;;;;7.35;1.23;;;30.60;85.20;;;;;;4989635;28;20065;-79
2022/02/16 03:27:24;;;;;;;5.57;1.42;;;30.80;85.10;;;;;;4980699;28;20043;-76
2022/02/16 03:29:51;;;;;;;8.13;1.00;;;31.70;83.80;;;;;;4985324;28;20030;-79
2022/02/16 03:32:19;;;;;;;6.80;1.75;;;32.20;83.60;;;;;;4981462;28;20031;-79
2022/02/16 03:34:46;;;;;;;2.30;0.90;;;32.70;83.10;;;;;;4987112;28;20023;-77
2022/02/16 03:37:14;;;;;;;5.50;0.75;;;32.60;81.90;;;;;;4982491;28;20033;-78
2022/02/16 03:39:41;;;;;;;5.30;1.05;;;31.80;83.40;;;;;;4975489;28;20619;-74
2022/02/16 03:42:08;;;;;;;4.25;1.15;;;31.40;84.10;;;;;;4986523;28;20085;-78
2022/02/16 03:44:36;;;;;;;5.35;1.00;;;31.00;83.80;;;;;;4979238;28;20134;-79
2022/02/16 03:47:04;;;;;;;3.95;1.30;;;30.70;85.10;;;;;;4985361;28;20066;-80
2022/02/16 03:49:31;;;;;;;7.05;1.15;;;30.70;85.40;;;;;;4982298;28;20042;-79
2022/02/16 03:51:59;;;;;;;3.03;0.88;;;30.70;85.30;;;;;;4981679;28;20100;-74
2022/02/16 03:54:26;;;;;;;3.17;1.20;;;30.60;85.90;;;;;;4986680;28;20125;-74
2022/02/16 03:56:53;;;;;;;3.25;0.95;;;30.90;83.60;;;;;;4981531;28;20117;-80
2022/02/16 03:59:21;;;;;;;5.45;1.08;;;31.60;84.30;;;;;;4984964;28;20382;-76
2022/02/16 04:01:48;;;;;;;2.55;1.33;;;32.30;82.70;;;;;;4987910;28;20059;-79
2022/02/16 04:04:15;;;;;;;6.25;1.55;;;32.70;79.20;;;;;;4984248;28;20386;-77
2022/02/16 04:06:43;;;;;;;3.58;0.85;;;33.10;80.00;;;;;;4986049;28;20053;-75
2022/02/16 04:09:12;;;;;;;3.72;1.05;;;33.20;80.70;;;;;;4964366;28;20109;-84
2022/02/16 04:11:39;;;;;;;5.20;1.30;;;33.20;80.00;;;;;;4986490;28;20049;-79
2022/02/16 04:14:07;;;;;;;4.47;1.00;;;32.90;79.10;;;;;;4980180;28;20022;-77
2022/02/16 04:16:34;;;;;;;4.35;0.68;;;32.50;80.10;;;;;;4987261;28;20373;-82
2022/02/16 04:19:01;;;;;;;7.18;1.40;;;32.40;80.40;;;;;;4980173;28;20022;-76
2022/02/16 04:21:29;;;;;;;3.28;0.93;;;32.40;80.70;;;;;;4975858;28;20524;-74
2022/02/16 04:23:56;;;;;;;4.95;1.48;;;31.90;81.60;;;;;;4978050;28;20026;-75
2022/02/16 04:26:24;;;;;;;4.20;1.38;;;31.20;81.80;;;;;;4980709;28;20042;-76
2022/02/16 04:28:51;;;;;;;3.97;0.80;;;31.20;81.80;;;;;;4978367;28;20035;-77
2022/02/16 04:31:18;;;;;;;4.43;1.25;;;31.30;81.60;;;;;;4982179;28;20045;-79
2022/02/16 04:33:46;;;;;;;5.05;1.08;;;31.60;80.70;;;;;;4979161;28;20098;-78
2022/02/16 04:36:25;;;;;;;3.60;0.90;;;31.80;79.70;;;;;;4978348;28;20041;-76
2022/02/16 04:38:57;;;;;;;2.78;0.90;;;32.00;79.20;;;;;;4976982;28;20479;-75
2022/02/16 04:41:25;;;;;;;3.20;0.93;;;32.30;77.30;;;;;;4986040;28;20045;-77
2022/02/16 04:43:52;;;;;;;4.88;1.25;;;32.40;76.20;;;;;;4976189;28;20040;-79
2022/02/16 04:46:20;;;;;;;2.05;0.50;;;32.40;76.90;;;;;;4980909;28;20034;-78
2022/02/16 04:48:47;;;;;;;3.15;0.80;;;32.30;76.50;;;;;;4979214;28;20014;-76
2022/02/16 04:51:15;;;;;;;6.63;0.90;;;32.30;77.20;;;;;;4986152;28;20104;-77
2022/02/16 04:53:42;;;;;;;4.05;1.10;;;32.60;77.10;;;;;;4981818;28;20110;-75
2022/02/16 04:56:09;;;;;;;6.03;1.23;;;32.70;76.60;;;;;;4967950;28;20508;-77
2022/02/16 04:58:37;;;;;;;4.03;0.73;;;32.70;75.60;;;;;;4969300;28;20043;-73
2022/02/16 05:01:04;;;;;;;3.53;1.00;;;32.70;76.20;;;;;;4960134;28;21019;-77
2022/02/16 05:03:31;;;;;;;3.47;0.52;;;32.90;75.40;;;;;;4967065;28;20023;-77
2022/02/16 05:05:59;;;;;;;3.45;0.70;;;32.90;76.00;;;;;;4966495;28;20039;-75
2022/02/16 05:08:26;;;;;;;5.85;1.10;;;32.60;76.30;;;;;;4966627;28;20847;-76
2022/02/16 05:10:54;;;;;;;7.68;1.02;;;32.60;76.20;;;;;;4965510;28;20034;-74
2022/02/16 05:13:22;;;;;;;1.65;0.70;;;32.50;76.60;;;;;;4959517;28;20474;-76
2022/02/16 05:15:49;;;;;;;3.38;0.85;;;32.60;76.90;;;;;;4960768;28;20027;-73
2022/02/16 05:18:16;;;;;;;4.50;0.75;;;32.60;76.80;;;;;;4967742;28;20031;-74
2022/02/16 05:20:44;;;;;;;5.60;1.50;;;32.40;77.30;;;;;;4963877;28;20130;-75
2022/02/16 05:23:11;;;;;;;5.50;0.90;;;32.50;76.60;;;;;;4960082;28;20035;-76
2022/02/16 05:25:38;;;;;;;3.55;1.02;;;32.10;78.40;;;;;;4961990;28;20027;-75
2022/02/16 05:28:06;;;;;;;7.45;1.17;;;32.00;77.30;;;;;;4959775;28;20174;-76
2022/02/16 05:30:33;;;;;;;2.35;0.98;;;32.00;77.70;;;;;;4962701;28;20109;-75
2022/02/16 05:33:01;;;;;;;4.32;0.93;;;32.10;77.70;;;;;;4960874;28;20114;-76
2022/02/16 05:35:29;;;;;;;3.83;1.15;;;32.00;77.90;;;;;;4963087;28;20445;-78
2022/02/16 05:37:56;;;;;;;1.02;0.60;;;31.80;77.70;;;;;;4958623;28;20034;-77
2022/02/16 05:40:23;;;;;;;5.25;0.63;;;31.70;77.40;;;;;;4963676;28;20045;-82
2022/02/16 05:42:51;;;;;;;4.03;0.95;;;31.40;77.20;;;;;;4961095;28;20479;-75
2022/02/16 05:45:18;;;;;;;2.65;0.85;;;31.30;78.00;;;;;;4959886;28;20037;-77
2022/02/16 05:47:45;;;;;;;5.30;1.33;;;31.40;78.30;;;;;;4956023;28;20039;-82
2022/02/16 05:50:13;;;;;;;4.97;1.02;;;31.40;77.90;;;;;;4960753;28;20553;-78
2022/02/16 05:52:41;;;;;;;4.53;0.77;;;31.40;77.80;;;;;;4961534;28;20182;-79
2022/02/16 05:55:09;;;;;;;2.25;0.77;;;31.50;77.90;;;;;;4973822;28;20054;-79
2022/02/16 05:57:36;;;;;;;4.18;0.80;;;31.50;77.60;;;;;;4977254;28;20053;-79
2022/02/16 06:00:05;;;;;;;3.75;0.70;;;31.50;77.80;;;;;;4977900;28;20027;-81
2022/02/16 06:02:32;;;;;;;3.65;1.20;;;31.60;78.80;;;;;;4980387;28;20053;-82
2022/02/16 06:05:00;;;;;;;4.13;1.30;;;31.70;78.40;;;;;;4981666;28;20492;-80
2022/02/16 06:07:27;;;;;;;5.40;1.92;;;31.60;78.30;;;;;;4981029;28;20042;-80
2022/02/16 06:09:54;;;;;;;4.80;1.00;;;31.30;77.60;;;;;;4982874;28;20555;-79
2022/02/16 06:12:21;;;;;;;5.88;0.90;;;31.20;77.80;;;;;;4986553;28;20034;-78
2022/02/16 06:14:49;;;;;;;5.88;1.08;;;31.10;78.80;;;;;;4986020;28;20049;-77
2022/02/16 06:17:19;;;;;;;3.38;0.93;;;31.10;79.30;;;;;;4981556;28;20502;-80
2022/02/16 06:19:47;;;;;;;3.05;0.90;;;31.10;79.70;;;;;;4985526;28;20030;-78
2022/02/16 06:22:14;;;;;;;2.08;0.85;;;31.10;79.60;;;;;;4983852;28;20030;-82
2022/02/16 06:24:41;;;;;;;4.00;0.85;;;31.10;79.50;;;;;;4967798;28;20053;-75
2022/02/16 06:27:09;;;;;;;5.82;1.58;;;31.00;79.30;;;;;;4989653;28;20864;-79
2022/02/16 06:29:36;;;;;;;10.45;1.48;;;30.70;78.80;;;;;;4994440;28;20037;-76
2022/02/16 06:32:05;;;;;;;7.63;1.30;;;30.60;79.10;;;;;;4992738;28;20474;-80
2022/02/16 06:34:33;;;;;;;2.65;1.48;;;30.40;80.10;;;;;;4985518;28;20040;-84
2022/02/16 06:37:00;;;;;;;5.15;1.55;;;30.40;78.00;;;;;;4981285;28;20110;-81
2022/02/16 06:39:27;;;;;;;5.38;0.93;;;30.50;77.30;;;;;;4983176;28;20028;-78
2022/02/16 06:41:55;;;;;;;7.78;1.67;;;30.60;77.10;;;;;;4980080;28;20552;-77
2022/02/16 06:44:22;;;;;;;5.03;0.70;;;30.70;77.30;;;;;;4984066;28;20026;-76
2022/02/16 06:46:50;;;;;;;5.55;0.73;;;30.90;76.60;;;;;;4962992;28;20393;-76
2022/02/16 06:49:17;;;;;;;3.78;1.08;;;30.70;77.50;;;;;;4983409;28;20062;-76
2022/02/16 06:51:44;;;;;;;4.78;1.70;;;30.70;79.50;;;;;;4982878;28;20480;-77
2022/02/16 06:54:12;;;;;;;6.38;1.25;;;30.60;81.40;;;;;;4983209;28;20465;-83
2022/02/16 06:56:39;;;;;;;6.60;1.17;;;30.50;81.50;;;;;;4979585;28;20129;-79
2022/02/16 06:59:06;;;;;;;17.13;2.10;;;30.20;83.20;;;;;;4979769;28;20496;-78
2022/02/16 07:01:34;;;;;;;3.03;1.40;;;30.00;84.00;;;;;;4982331;28;20041;-76
2022/02/16 07:04:01;;;;;;;9.18;1.58;;;29.80;85.40;;;;;;4982000;28;20030;-78
2022/02/16 07:06:30;;;;;;;5.40;1.00;;;29.70;86.20;;;;;;4981638;28;20043;-77
2022/02/16 07:09:00;;;;;;;5.65;0.98;;;29.40;87.10;;;;;;4977015;28;20041;-79
2022/02/16 07:11:30;;;;;;;3.78;1.10;;;29.50;87.80;;;;;;4980639;28;20034;-81
2022/02/16 07:14:00;;;;;;;6.22;0.80;;;29.50;87.50;;;;;;4985711;28;20036;-82
2022/02/16 07:16:27;;;;;;;5.35;1.00;;;29.30;88.20;;;;;;4979540;28;20061;-78
2022/02/16 07:18:55;;;;;;;6.60;1.75;;;29.10;88.70;;;;;;4982181;28;20026;-77
2022/02/16 07:21:23;;;;;;;7.43;1.65;;;29.10;88.80;;;;;;4991685;28;20031;-79
2022/02/16 07:23:54;;;;;;;7.55;1.95;;;29.20;88.50;;;;;;4987265;28;20401;-77
2022/02/16 07:26:22;;;;;;;5.28;0.77;;;29.20;88.90;;;;;;4982381;28;20042;-79
2022/02/16 07:28:49;;;;;;;3.63;0.90;;;29.20;88.80;;;;;;4980072;28;20041;-77
2022/02/16 07:31:17;;;;;;;6.60;1.02;;;29.00;88.90;;;;;;4988208;28;20046;-79
2022/02/16 07:33:44;;;;;;;5.50;1.33;;;29.00;88.70;;;;;;4987465;28;20036;-76
2022/02/16 07:36:11;;;;;;;3.88;0.73;;;28.80;89.30;;;;;;4992815;28;20026;-79
2022/02/16 07:38:39;;;;;;;9.75;1.67;;;28.60;90.00;;;;;;4986112;28;20022;-81
2022/02/16 07:41:06;;;;;;;8.98;1.15;;;28.50;90.10;;;;;;4989068;28;20618;-82
2022/02/16 07:43:33;;;;;;;7.05;1.30;;;28.40;90.30;;;;;;4979535;28;20034;-79
2022/02/16 07:46:01;;;;;;;8.73;2.38;;;28.40;90.50;;;;;;4985760;28;20031;-80
2022/02/16 07:48:28;;;;;;;7.35;1.00;;;28.20;90.70;;;;;;4982861;28;20049;-79
2022/02/16 07:50:55;;;;;;;2.45;1.00;;;28.10;90.90;;;;;;4989411;28;20042;-79
2022/02/16 07:53:23;;;;;;;6.93;0.88;;;28.10;90.90;;;;;;4979240;28;20029;-79
2022/02/16 07:55:51;;;;;;;2.65;1.42;;;28.00;90.80;;;;;;4979076;28;20053;-80
2022/02/16 07:58:19;;;;;;;8.23;1.02;;;27.80;91.00;;;;;;4981384;28;20049;-79
2022/02/16 08:00:46;;;;;;;6.45;1.58;;;27.70;91.20;;;;;;4982609;28;20521;-79
2022/02/16 08:03:13;;;;;;;4.43;1.65;;;27.60;91.40;;;;;;4987152;28;20034;-75
2022/02/16 08:05:42;;;;;;;6.80;0.98;;;27.40;91.60;;;;;;4977865;28;20486;-79
2022/02/16 08:08:09;;;;;;;5.60;0.70;;;27.30;91.80;;;;;;4983890;28;20041;-76
2022/02/16 08:10:37;;;;;;;4.72;1.13;;;27.20;91.80;;;;;;4987610;28;20359;-77
2022/02/16 08:13:04;;;;;;;6.80;1.05;;;27.10;92.00;;;;;;4987405;28;20023;-77
2022/02/16 08:15:33;;;;;;;6.22;1.02;;;27.00;92.20;;;;;;4976951;28;20018;-78
2022/02/16 08:18:01;;;;;;;3.17;0.70;;;26.80;92.50;;;;;;4986020;28;20030;-79
2022/02/16 08:20:29;;;;;;;4.78;1.17;;;26.70;92.70;;;;;;4988522;28;20121;-79
2022/02/16 08:22:56;;;;;;;10.88;0.93;;;26.70;92.70;;;;;;4981298;28;20121;-78
2022/02/16 08:25:24;;;;;;;2.80;0.55;;;26.60;92.80;;;;;;4989578;28;20734;-78
2022/02/16 08:27:51;;;;;;;6.85;0.80;;;26.50;93.00;;;;;;4988687;28;20065;-78
2022/02/16 08:30:19;;;;;;;5.82;1.23;;;26.40;93.20;;;;;;4992445;28;20066;-79
2022/02/16 08:32:48;;;;;;;5.80;0.80;;;26.40;93.20;;;;;;4990851;28;20096;-77
2022/02/16 08:35:15;;;;;;;3.10;0.60;;;26.40;93.40;;;;;;4985628;28;20029;-75
2022/02/16 08:37:43;;;;;;;3.22;1.10;;;26.20;93.40;;;;;;4986112;28;20453;-78
2022/02/16 08:40:11;;;;;;;4.15;0.65;;;26.20;93.60;;;;;;4983323;28;20473;-79
2022/02/16 08:42:40;;;;;;;5.60;1.10;;;26.10;93.70;;;;;;4987378;28;20035;-76
2022/02/16 08:45:09;;;;;;;2.85;0.50;;;26.00;93.80;;;;;;4989446;28;20030;-77
2022/02/16 08:47:36;;;;;;;4.57;0.80;;;25.90;93.80;;;;;;4982619;28;20461;-76
2022/02/16 08:50:04;;;;;;;7.55;1.45;;;25.90;93.90;;;;;;4983206;28;20025;-78
2022/02/16 08:52:31;;;;;;;5.82;1.17;;;25.90;93.90;;;;;;4983136;28;20031;-77
2022/02/16 08:54:59;;;;;;;3.33;0.50;;;25.90;94.00;;;;;;4986063;28;20043;-76
2022/02/16 08:57:26;;;;;;;5.38;0.90;;;25.80;94.40;;;;;;4968683;28;20468;-78
2022/02/16 08:59:53;;;;;;;5.03;1.33;;;25.50;94.50;;;;;;4988803;28;20041;-77
2022/02/16 09:02:21;;;;;;;4.93;0.60;;;25.60;94.60;;;;;;4989559;28;20034;-78
2022/02/16 09:04:48;;;;;;;2.30;0.93;;;25.60;94.60;;;;;;4987258;28;20027;-78
2022/02/16 09:07:31;;;;;;;4.72;0.70;;;25.60;94.70;;;;;;4986537;28;20056;-79
2022/02/16 09:10:00;;;;;;;4.63;1.00;;;25.60;94.80;;;;;;4978516;28;20081;-77
2022/02/16 09:12:28;;;;;;;5.65;0.80;;;25.40;95.10;;;;;;4985909;28;20045;-79
2022/02/16 09:14:56;;;;;;;6.30;0.70;;;25.30;95.30;;;;;;4983097;28;20067;-78
2022/02/16 09:17:25;;;;;;;7.22;1.50;;;25.30;95.50;;;;;;4985220;28;20031;-80
2022/02/16 09:19:53;;;;;;;5.40;0.80;;;25.30;95.50;;;;;;4985107;28;20249;-77
2022/02/16 09:22:22;;;;;;;7.05;0.85;;;25.20;95.70;;;;;;4982554;28;20030;-75
2022/02/16 09:24:50;;;;;;;7.25;1.15;;;25.00;95.90;;;;;;4981851;28;20034;-75
2022/02/16 09:27:21;;;;;;;2.97;0.80;;;25.00;96.10;;;;;;4970160;28;20046;-77
2022/02/16 09:29:49;;;;;;;3.92;0.80;;;24.90;96.20;;;;;;4983300;28;20038;-77
2022/02/16 09:32:17;;;;;;;4.80;1.35;;;25.00;96.10;;;;;;4982200;28;20041;-76
2022/02/16 09:34:45;;;;;;;4.25;0.63;;;25.10;96.10;;;;;;4981410;28;20073;-77
2022/02/16 09:37:13;;;;;;;7.10;0.95;;;25.00;96.20;;;;;;4979019;28;20033;-77
2022/02/16 09:39:41;;;;;;;6.07;0.70;;;24.90;96.40;;;;;;4981880;28;20022;-76
2022/02/16 09:42:08;;;;;;;5.35;1.48;;;24.90;96.50;;;;;;4977982;28;20482;-77
2022/02/16 09:44:51;;;;;;;4.80;0.50;;;24.90;96.50;;;;;;4988063;28;20041;-78
2022/02/16 09:47:19;;;;;;;6.60;0.45;;;24.80;96.40;;;;;;4981953;28;20046;-75
2022/02/16 09:49:46;;;;;;;3.63;1.27;;;24.70;96.60;;;;;;4987423;28;20031;-80
2022/02/16 09:52:14;;;;;;;6.63;1.02;;;24.50;96.90;;;;;;4992431;28;20030;-79
2022/02/16 09:54:41;;;;;;;6.93;0.73;;;24.50;97.00;;;;;;4993634;28;20042;-77
2022/02/16 09:57:12;;;;;;;4.55;0.55;;;24.50;97.00;;;;;;4987761;28;20035;-81
2022/02/16 09:59:41;;;;;;;3.67;0.55;;;24.50;97.10;;;;;;4981070;28;20130;-78
2022/02/16 10:02:12;;;;;;;3.72;1.02;;;24.50;97.10;;;;;;4985776;28;20034;-77
2022/02/16 10:04:52;;;;;;;5.82;0.90;;;24.50;97.00;;;;;;4992031;28;20121;-75
2022/02/16 10:07:25;;;;;;;0.95;0.38;;;24.40;97.30;;;;;;4992331;28;20052;-75
2022/02/16 10:09:53;;;;;;;5.57;0.90;;;24.40;97.40;;;;;;4990076;28;20105;-78
2022/02/16 10:12:32;;;;;;;4.25;1.00;;;24.30;97.50;;;;;;4984396;28;20058;-79
2022/02/16 10:14:59;;;;;;;6.50;2.03;;;24.30;97.60;;;;;;4981197;28;20108;-80
2022/02/16 10:17:30;;;;;;;4.93;0.82;;;24.20;97.70;;;;;;4984994;28;20103;-81
2022/02/16 10:20:03;;;;;;;3.67;0.95;;;24.20;97.80;;;;;;4984969;28;20069;-79
2022/02/16 10:22:46;;;;;;;6.40;1.42;;;24.10;97.90;;;;;;4986833;28;20385;-78
2022/02/16 10:25:22;;;;;;;8.10;1.17;;;24.00;98.30;;;;;;4986780;28;20041;-75
2022/02/16 10:28:14;;;;;;;6.38;1.38;;;24.00;98.30;;;;;;4989459;28;20038;-78
2022/02/16 10:30:58;;;;;;;5.30;0.88;;;24.00;98.40;;;;;;4991618;28;20031;-78
2022/02/16 10:33:29;;;;;;;8.77;0.93;;;23.90;98.60;;;;;;4984262;28;20117;-76
2022/02/16 10:36:07;;;;;;;6.10;1.88;;;24.00;98.70;;;;;;4988282;28;20038;-77
2022/02/16 10:38:56;;;;;;;6.05;1.35;;;23.90;98.80;;;;;;4982947;28;20037;-79
2022/02/16 10:41:27;;;;;;;9.07;1.00;;;23.90;98.90;;;;;;4981915;28;20022;-78
2022/02/16 10:43:58;;;;;;;6.18;1.08;;;23.80;99.00;;;;;;4991139;28;20034;-79
2022/02/16 10:46:31;;;;;;;6.05;0.88;;;23.70;99.20;;;;;;4992595;28;20061;-79
2022/02/16 10:49:16;;;;;;;8.02;0.95;;;23.70;99.50;;;;;;4975242;28;20034;-77
2022/02/16 10:51:48;;;;;;;4.88;0.82;;;23.60;99.70;;;;;;4987503;28;20868;-75
2022/02/16 10:54:18;;;;;;;4.55;0.88;;;23.50;99.80;;;;;;4983090;28;20108;-78
2022/02/16 10:56:47;;;;;;;5.45;1.58;;;23.50;99.90;;;;;;4985940;28;20375;-76
2022/02/16 10:59:15;;;;;;;3.88;1.15;;;23.40;99.90;;;;;;4987599;28;20035;-78
2022/02/16 11:01:44;;;;;;;3.80;1.05;;;23.30;99.90;;;;;;4979718;28;20030;-75
2022/02/16 11:04:14;;;;;;;5.40;1.35;;;23.30;99.90;;;;;;4977853;28;20478;-75
2022/02/16 11:06:50;;;;;;;7.38;1.30;;;23.30;99.90;;;;;;4985272;28;20124;-79
2022/02/16 11:09:20;;;;;;;3.47;0.60;;;23.30;99.90;;;;;;4987332;28;20462;-78
2022/02/16 11:11:51;;;;;;;3.65;0.68;;;23.20;99.90;;;;;;4980909;28;20078;-80
2022/02/16 11:14:23;;;;;;;4.13;0.85;;;23.10;99.90;;;;;;4984000;28;20041;-75
2022/02/16 11:16:51;;;;;;;6.50;0.95;;;23.10;99.90;;;;;;4984621;28;20030;-74
2022/02/16 11:19:32;;;;;;;4.90;0.80;;;23.10;99.90;;;;;;4981077;28;20073;-79
2022/02/16 11:22:13;;;;;;;5.65;0.70;;;23.10;99.90;;;;;;4980993;28;20041;-78
2022/02/16 11:24:51;;;;;;;9.27;1.13;;;23.00;99.90;;;;;;4983845;28;20068;-76
2022/02/16 11:27:29;;;;;;;7.50;1.52;;;22.90;99.90;;;;;;4974470;28;20042;-81
2022/02/16 11:30:00;;;;;;;4.90;0.90;;;23.00;99.90;;;;;;4988960;28;20034;-76
2022/02/16 11:32:31;;;;;;;4.88;0.70;;;22.90;99.90;;;;;;4981853;28;20023;-75
2022/02/16 11:35:27;;;;;;;4.63;0.93;;;22.90;99.90;;;;;;4996275;28;20045;-73
2022/02/16 11:38:04;;;;;;;5.88;0.70;;;22.90;99.90;;;;;;4983661;28;20034;-78
2022/02/16 11:40:42;;;;;;;7.55;0.95;;;22.90;99.90;;;;;;4982360;28;20117;-77
2022/02/16 11:43:12;;;;;;;4.07;1.55;;;22.80;99.90;;;;;;4978228;28;20102;-76
2022/02/16 11:46:01;;;;;;;2.85;0.85;;;22.80;99.90;;;;;;4986667;28;20201;-76
2022/02/16 11:48:50;;;;;;;4.75;1.38;;;22.80;99.90;;;;;;4979962;28;20128;-76
2022/02/16 11:51:26;;;;;;;5.53;1.40;;;22.70;99.90;;;;;;4979864;28;20370;-77
2022/02/16 11:53:54;;;;;;;4.28;1.02;;;22.70;99.90;;;;;;4980085;28;20212;-79
2022/02/16 11:56:26;;;;;;;4.97;1.25;;;22.60;99.90;;;;;;4988764;28;20158;-78
2022/02/16 11:59:24;;;;;;;3.47;1.33;;;22.60;99.90;;;;;;4980824;28;20030;-74
2022/02/16 12:02:09;;;;;;;3.80;0.90;;;22.60;99.90;;;;;;4978413;28;20164;-76
2022/02/16 12:04:59;;;;;;;4.20;1.40;;;22.50;99.90;;;;;;4976637;28;20022;-79
2022/02/16 12:07:27;;;;;;;3.53;1.08;;;22.50;99.90;;;;;;4984373;28;20121;-81
2022/02/16 12:10:22;;;;;;;5.72;1.08;;;22.40;99.90;;;;;;4980300;28;20509;-80
2022/02/16 12:12:50;;;;;;;3.55;0.77;;;22.40;99.90;;;;;;4980954;28;20042;-79
2022/02/16 12:15:20;;;;;;;5.20;0.77;;;22.40;99.90;;;;;;4991109;28;20030;-78
2022/02/16 12:17:47;;;;;;;3.58;0.70;;;22.40;99.90;;;;;;4982276;28;20029;-79
2022/02/16 12:20:15;;;;;;;2.97;0.85;;;22.40;99.90;;;;;;4986963;28;20027;-79
2022/02/16 12:22:45;;;;;;;5.45;1.35;;;22.30;99.90;;;;;;4981302;28;20508;-77
2022/02/16 12:25:15;;;;;;;5.78;0.93;;;22.30;99.90;;;;;;4983529;28;20046;-76
2022/02/16 12:27:43;;;;;;;4.82;0.73;;;22.30;99.90;;;;;;4963888;28;20465;-83
2022/02/16 12:30:11;;;;;;;5.63;0.63;;;22.30;99.90;;;;;;4972941;28;20331;-79
2022/02/16 12:32:45;;;;;;;3.60;1.05;;;22.30;99.90;;;;;;4984727;28;20049;-79
2022/02/16 12:35:12;;;;;;;6.00;1.35;;;22.30;99.90;;;;;;4986087;28;20034;-82
2022/02/16 12:37:40;;;;;;;4.43;1.40;;;22.20;99.90;;;;;;4981504;28;20125;-80
2022/02/16 12:40:11;;;;;;;5.63;1.30;;;22.20;99.90;;;;;;4989713;28;20083;-78
2022/02/16 12:42:49;;;;;;;4.15;1.00;;;22.10;99.90;;;;;;4983782;28;20096;-80
2022/02/16 12:45:24;;;;;;;4.70;0.70;;;22.10;99.90;;;;;;4982505;28;20019;-78
2022/02/16 12:47:58;;;;;;;3.80;0.98;;;22.10;99.90;;;;;;4979691;28;20358;-80
2022/02/16 12:50:28;;;;;;;7.53;1.20;;;22.10;99.90;;;;;;4984933;28;20041;-74
2022/02/16 12:53:00;;;;;;;4.85;0.55;;;22.10;99.90;;;;;;4983252;28;20073;-76
2022/02/16 12:55:28;;;;;;;4.75;0.60;;;22.00;99.90;;;;;;4990673;28;20046;-74